Terminal Aerodrome Forecast
Issued by NWS

Home | Current Version | Previous Version | Text Only | Print | Product List | Glossary On
Versions: 1 2 3 4 5 6 7 8 9 10 11 12 13 14 15 16
000
FTUS44 KTSA 300520
TAFBVO
TAF
KBVO 300520Z 3006/0106 09005KT P6SM BKN007 OVC015
     FM300900 23007KT 4SM -SHRA BR OVC007
     FM301400 21012G18KT P6SM VCSH OVC009
     FM301800 22018G25KT P6SM VCSH BKN025
     FM010000 25020G27KT P6SM OVC015=

USA.gov is the U.S. government's official web portal to all federal, state and local government web resources and services.